createdAt,value
2019-03-03T00:00:51.195Z,7.90
2019-03-03T00:03:19.635Z,7.90
2019-03-03T00:05:48.053Z,7.70
2019-03-03T00:08:16.447Z,7.60
2019-03-03T00:10:44.899Z,7.50
2019-03-03T00:13:13.330Z,7.50
2019-03-03T00:15:41.810Z,7.50
2019-03-03T00:18:10.388Z,7.50
2019-03-03T00:20:38.795Z,7.50
2019-03-03T00:23:07.498Z,7.50
2019-03-03T00:25:35.933Z,7.60
2019-03-03T00:28:04.406Z,7.60
2019-03-03T00:30:34.691Z,7.60
2019-03-03T00:33:03.132Z,7.70
2019-03-03T00:35:31.724Z,7.70
2019-03-03T00:38:04.878Z,7.80
2019-03-03T00:40:34.975Z,7.80
2019-03-03T00:43:05.045Z,7.80
2019-03-03T00:45:35.098Z,7.80
2019-03-03T00:48:07.656Z,7.80
2019-03-03T00:50:37.736Z,7.80
2019-03-03T00:53:13.595Z,7.90
2019-03-03T00:55:43.814Z,7.90
2019-03-03T00:58:13.872Z,7.90
2019-03-03T01:00:46.366Z,7.90
2019-03-03T01:03:19.778Z,7.80
2019-03-03T01:05:50.158Z,7.80
2019-03-03T01:08:26.262Z,7.80
2019-03-03T01:11:14.391Z,7.80
2019-03-03T01:13:44.453Z,7.90
2019-03-03T01:16:17.521Z,7.90
2019-03-03T01:18:47.584Z,7.90
2019-03-03T01:21:20.627Z,7.90
2019-03-03T01:24:06.869Z,7.90
2019-03-03T01:26:35.759Z,7.90
2019-03-03T01:29:06.248Z,7.90
2019-03-03T01:31:34.908Z,7.90
2019-03-03T01:34:03.648Z,7.90
2019-03-03T01:36:32.102Z,7.90
2019-03-03T01:39:00.497Z,7.90
2019-03-03T01:41:28.997Z,8.00
2019-03-03T01:43:57.555Z,8.00
2019-03-03T01:46:26.005Z,8.00
2019-03-03T01:48:54.411Z,8.00
2019-03-03T01:51:22.842Z,7.90
2019-03-03T01:53:51.276Z,8.00
2019-03-03T01:56:23.194Z,8.00
2019-03-03T01:58:51.689Z,8.00
2019-03-03T02:01:20.477Z,8.00
2019-03-03T02:03:55.283Z,8.00
2019-03-03T02:06:24.512Z,8.00
2019-03-03T02:08:54.069Z,8.00
2019-03-03T02:11:25.546Z,8.00
2019-03-03T02:13:53.985Z,8.00
2019-03-03T02:16:22.386Z,8.00
2019-03-03T02:18:51.542Z,8.00
2019-03-03T02:21:20.290Z,8.00
2019-03-03T02:23:48.723Z,8.00
2019-03-03T02:26:17.159Z,8.00
2019-03-03T02:28:50.568Z,8.00
2019-03-03T02:31:19.129Z,8.00
2019-03-03T02:33:47.800Z,8.00
2019-03-03T02:36:18.215Z,8.00
2019-03-03T02:38:46.670Z,8.00
2019-03-03T02:41:19.682Z,8.00
2019-03-03T02:43:48.087Z,8.00
2019-03-03T02:46:16.544Z,8.00
2019-03-03T02:48:44.981Z,7.90
2019-03-03T02:51:13.425Z,8.00
2019-03-03T02:53:41.830Z,8.00
2019-03-03T02:56:10.262Z,8.10
2019-03-03T02:58:38.672Z,8.00
2019-03-03T03:01:17.601Z,8.00
2019-03-03T03:03:50.839Z,8.10
2019-03-03T03:06:32.827Z,8.10
2019-03-03T03:09:12.134Z,8.10
2019-03-03T03:11:51.302Z,8.10
2019-03-03T03:14:36.283Z,8.10
2019-03-03T03:17:24.801Z,8.10
2019-03-03T03:19:54.839Z,8.10
2019-03-03T03:22:30.657Z,8.10
2019-03-03T03:25:03.688Z,8.00
2019-03-03T03:27:40.055Z,8.10
2019-03-03T03:30:14.370Z,8.00
2019-03-03T03:32:50.619Z,8.00
2019-03-03T03:35:20.659Z,8.00
2019-03-03T03:37:58.655Z,8.00
2019-03-03T03:40:54.099Z,8.00
2019-03-03T03:43:43.340Z,8.00
2019-03-03T03:46:19.674Z,7.90
2019-03-03T03:48:52.198Z,7.90
2019-03-03T03:51:22.271Z,7.80
2019-03-03T03:53:58.285Z,7.80
2019-03-03T03:56:29.775Z,7.70
2019-03-03T03:59:18.686Z,7.70
2019-03-03T04:01:54.377Z,7.60
2019-03-03T04:04:24.603Z,7.60
2019-03-03T04:06:54.680Z,7.60
2019-03-03T04:09:31.090Z,7.60
2019-03-03T04:12:01.181Z,7.60
2019-03-03T04:14:32.251Z,7.70
2019-03-03T04:17:08.642Z,7.70
2019-03-03T04:19:38.675Z,7.70
2019-03-03T04:22:25.150Z,7.70
2019-03-03T04:25:13.507Z,7.70
2019-03-03T04:27:55.539Z,7.70
2019-03-03T04:30:28.287Z,7.70
2019-03-03T04:33:01.308Z,7.80
2019-03-03T04:35:31.387Z,7.80
2019-03-03T04:38:01.458Z,7.80
2019-03-03T04:40:46.782Z,7.90
2019-03-03T04:43:30.350Z,7.90
2019-03-03T04:46:18.459Z,7.90
2019-03-03T04:48:48.562Z,7.90
2019-03-03T04:51:29.511Z,7.90
2019-03-03T04:53:59.615Z,7.90
2019-03-03T04:56:29.691Z,7.90
2019-03-03T04:59:10.174Z,7.80
2019-03-03T05:01:42.861Z,7.80
2019-03-03T05:04:28.573Z,7.80
2019-03-03T05:07:15.192Z,7.70
2019-03-03T05:09:51.203Z,7.70
2019-03-03T05:12:21.265Z,7.60
2019-03-03T05:14:51.303Z,7.50
2019-03-03T05:17:27.537Z,7.40
2019-03-03T05:20:09.575Z,7.30
2019-03-03T05:22:38.083Z,7.10
2019-03-03T05:25:07.191Z,6.90
2019-03-03T05:27:35.605Z,6.80
2019-03-03T05:30:06.844Z,6.70
2019-03-03T05:32:35.278Z,6.60
2019-03-03T05:35:06.355Z,6.60
2019-03-03T05:37:39.069Z,6.70
2019-03-03T05:40:08.606Z,6.70
2019-03-03T05:42:39.359Z,6.80
2019-03-03T05:45:11.977Z,6.90
2019-03-03T05:47:40.467Z,7.00
2019-03-03T05:50:08.883Z,7.10
2019-03-03T05:52:37.298Z,7.20
2019-03-03T05:55:06.400Z,7.20
2019-03-03T05:57:34.806Z,7.20
2019-03-03T06:00:03.995Z,7.30
2019-03-03T06:02:32.436Z,7.40
2019-03-03T06:05:00.848Z,7.40
2019-03-03T06:07:29.250Z,7.50
2019-03-03T06:09:57.695Z,7.50
2019-03-03T06:12:26.142Z,7.50
2019-03-03T06:14:54.614Z,7.50
2019-03-03T06:17:23.014Z,7.50
2019-03-03T06:19:51.458Z,7.60
2019-03-03T06:22:20.536Z,7.60
2019-03-03T06:24:48.929Z,7.70
2019-03-03T06:27:17.373Z,7.70
2019-03-03T06:29:45.906Z,7.70
2019-03-03T06:32:14.352Z,7.70
2019-03-03T06:34:42.770Z,7.70
2019-03-03T06:37:11.218Z,7.70
2019-03-03T06:39:39.632Z,7.70
2019-03-03T06:42:08.027Z,7.70
2019-03-03T06:44:36.451Z,7.70
2019-03-03T06:47:04.887Z,7.80
2019-03-03T06:49:33.514Z,7.90
2019-03-03T06:52:01.915Z,8.00
2019-03-03T06:54:30.350Z,8.10
2019-03-03T06:56:58.797Z,8.20
2019-03-03T06:59:27.218Z,8.30
2019-03-03T07:01:55.635Z,8.50
2019-03-03T07:04:24.065Z,8.60
2019-03-03T07:06:52.510Z,8.70
2019-03-03T07:09:21.093Z,8.70
2019-03-03T07:11:49.542Z,8.80
2019-03-03T07:14:18.054Z,8.90
2019-03-03T07:16:46.510Z,8.90
2019-03-03T07:19:14.959Z,8.90
2019-03-03T07:21:43.385Z,8.90
2019-03-03T07:24:11.826Z,8.90
2019-03-03T07:26:40.235Z,9.00
2019-03-03T07:29:08.707Z,9.10
2019-03-03T07:31:37.370Z,9.10
2019-03-03T07:34:05.894Z,9.30
2019-03-03T07:36:34.300Z,9.40
2019-03-03T07:39:04.007Z,9.60
2019-03-03T07:41:32.494Z,9.70
2019-03-03T07:44:00.932Z,9.80
2019-03-03T07:46:29.340Z,9.80
2019-03-03T07:48:57.782Z,9.90
2019-03-03T07:51:26.206Z,9.90
2019-03-03T07:53:54.746Z,10.00
2019-03-03T07:56:23.175Z,10.10
2019-03-03T07:58:51.866Z,10.10
2019-03-03T08:01:20.269Z,10.30
2019-03-03T08:03:56.491Z,10.30
2019-03-03T08:06:25.232Z,10.40
2019-03-03T08:08:53.750Z,10.50
2019-03-03T08:11:22.478Z,10.50
2019-03-03T08:13:50.992Z,10.60
2019-03-03T08:16:19.449Z,10.70
2019-03-03T08:18:47.861Z,10.80
2019-03-03T08:21:16.296Z,10.80
2019-03-03T08:23:44.714Z,10.90
2019-03-03T08:26:13.204Z,10.80
2019-03-03T08:28:41.637Z,10.90
2019-03-03T08:31:10.159Z,11.00
2019-03-03T08:33:38.639Z,11.00
2019-03-03T08:36:07.127Z,11.00
2019-03-03T08:38:35.558Z,11.00
2019-03-03T08:41:04.091Z,10.90
2019-03-03T08:43:43.347Z,10.80
2019-03-03T08:46:13.394Z,10.80
2019-03-03T08:48:56.195Z,10.80
2019-03-03T08:51:32.577Z,10.80
2019-03-03T08:54:18.975Z,10.80
2019-03-03T08:57:05.488Z,10.80
2019-03-03T08:59:35.646Z,10.80
2019-03-03T09:02:11.649Z,10.70
2019-03-03T09:04:47.604Z,10.70
2019-03-03T09:07:20.396Z,10.80
2019-03-03T09:10:06.622Z,11.00
2019-03-03T09:12:36.818Z,11.10
2019-03-03T09:15:24.224Z,11.00
2019-03-03T09:18:13.077Z,11.00
2019-03-03T09:20:43.122Z,11.10
2019-03-03T09:23:28.466Z,11.00
2019-03-03T09:26:10.722Z,10.90
2019-03-03T09:28:40.767Z,10.90
2019-03-03T09:31:29.071Z,10.80
2019-03-03T09:34:07.871Z,10.70
2019-03-03T09:36:43.643Z,10.60
2019-03-03T09:39:14.154Z,10.50
2019-03-03T09:41:59.511Z,10.50
2019-03-03T09:44:38.724Z,10.60
2019-03-03T09:47:25.264Z,10.60
2019-03-03T09:49:55.371Z,10.70
2019-03-03T09:52:25.450Z,10.70
2019-03-03T09:54:58.451Z,10.80
2019-03-03T09:57:28.643Z,10.90
2019-03-03T10:00:04.512Z,11.10
2019-03-03T10:02:37.630Z,11.20
2019-03-03T10:05:09.522Z,11.40
2019-03-03T10:07:42.305Z,11.60
2019-03-03T10:10:16.319Z,11.50
2019-03-03T10:13:02.554Z,11.60
2019-03-03T10:15:41.914Z,11.70
2019-03-03T10:18:12.070Z,12.00
2019-03-03T10:20:51.070Z,12.10
2019-03-03T10:23:27.088Z,12.10
2019-03-03T10:25:57.758Z,12.00
2019-03-03T10:28:30.632Z,12.10
2019-03-03T10:31:18.918Z,11.90
2019-03-03T10:33:52.138Z,12.00
2019-03-03T10:36:25.324Z,12.30
2019-03-03T10:38:55.359Z,12.20
2019-03-03T10:41:25.554Z,12.20
2019-03-03T10:43:56.111Z,12.20
2019-03-03T10:46:28.875Z,12.00
2019-03-03T10:49:19.855Z,12.20
2019-03-03T10:52:05.654Z,12.30
2019-03-03T10:54:40.034Z,12.60
2019-03-03T10:57:10.118Z,12.50
2019-03-03T10:59:40.282Z,12.60
2019-03-03T11:02:19.546Z,12.60
2019-03-03T11:04:58.590Z,12.80
2019-03-03T11:07:28.892Z,12.70
2019-03-03T11:10:04.941Z,12.70
2019-03-03T11:12:38.066Z,12.40
2019-03-03T11:15:26.190Z,12.40
2019-03-03T11:18:02.102Z,12.50
2019-03-03T11:20:44.420Z,12.60
2019-03-03T11:23:14.552Z,12.80
2019-03-03T11:25:44.952Z,12.60
2019-03-03T11:28:23.600Z,12.40
2019-03-03T11:30:52.608Z,12.30
2019-03-03T11:33:31.583Z,12.50
2019-03-03T11:36:17.684Z,12.40
2019-03-03T11:38:47.810Z,12.50
2019-03-03T11:41:17.934Z,12.50
2019-03-03T11:43:48.301Z,12.50
2019-03-03T11:46:21.219Z,12.50
2019-03-03T11:48:51.307Z,12.50
2019-03-03T11:51:33.154Z,12.40
2019-03-03T11:54:12.006Z,12.40
2019-03-03T11:56:45.106Z,12.50
2019-03-03T11:59:20.967Z,12.50
2019-03-03T12:01:53.648Z,12.70
2019-03-03T12:04:23.696Z,12.60
2019-03-03T12:06:53.798Z,12.60
2019-03-03T12:09:24.028Z,12.60
2019-03-03T12:11:56.546Z,12.60
2019-03-03T12:14:42.915Z,12.40
2019-03-03T12:17:18.968Z,12.40
2019-03-03T12:20:01.140Z,12.40
2019-03-03T12:22:34.035Z,12.40
2019-03-03T12:25:12.795Z,12.50
2019-03-03T12:27:43.260Z,12.60
2019-03-03T12:30:22.419Z,12.70
2019-03-03T12:32:55.473Z,12.90
2019-03-03T12:35:25.582Z,13.00
2019-03-03T12:37:55.837Z,13.00
2019-03-03T12:40:25.993Z,12.80
2019-03-03T12:42:58.921Z,12.60
2019-03-03T12:45:35.827Z,12.50
2019-03-03T12:48:15.693Z,12.50
2019-03-03T12:51:00.817Z,12.40
2019-03-03T12:53:33.762Z,12.40
2019-03-03T12:56:09.790Z,12.40
2019-03-03T12:58:56.267Z,12.40
2019-03-03T13:01:35.287Z,12.50
2019-03-03T13:04:21.937Z,12.40
2019-03-03T13:06:52.042Z,12.30
2019-03-03T13:09:22.198Z,12.30
2019-03-03T13:11:55.376Z,12.30
2019-03-03T13:14:43.747Z,12.40
2019-03-03T13:17:22.682Z,12.40
2019-03-03T13:19:58.356Z,12.50
2019-03-03T13:22:37.285Z,12.40
2019-03-03T13:25:26.258Z,12.50
2019-03-03T13:28:05.506Z,12.50
2019-03-03T13:30:44.451Z,12.50
2019-03-03T13:33:14.692Z,12.50
2019-03-03T13:36:00.895Z,12.50
2019-03-03T13:38:34.835Z,12.50
2019-03-03T13:41:10.923Z,12.40
2019-03-03T13:43:39.362Z,12.40
2019-03-03T13:46:07.859Z,12.30
2019-03-03T13:48:36.488Z,12.40
2019-03-03T13:51:05.088Z,12.50
2019-03-03T13:53:33.514Z,12.40
2019-03-03T13:56:02.014Z,12.30
2019-03-03T13:58:30.453Z,12.30
2019-03-03T14:00:58.995Z,12.30
2019-03-03T14:03:27.647Z,12.30
2019-03-03T14:05:56.072Z,12.20
2019-03-03T14:08:27.462Z,12.10
2019-03-03T14:10:55.880Z,12.10
2019-03-03T14:13:24.564Z,12.20
2019-03-03T14:15:52.998Z,12.20
2019-03-03T14:18:21.484Z,12.20
2019-03-03T14:20:49.928Z,12.20
2019-03-03T14:23:21.613Z,12.20
2019-03-03T14:25:50.082Z,12.10
2019-03-03T14:28:19.081Z,12.10
2019-03-03T14:30:47.580Z,12.10
2019-03-03T14:33:16.069Z,12.10
2019-03-03T14:35:44.495Z,12.20
2019-03-03T14:38:15.987Z,12.10
2019-03-03T14:40:44.417Z,12.00
2019-03-03T14:43:12.834Z,12.00
2019-03-03T14:45:43.414Z,12.00
2019-03-03T14:48:11.895Z,12.00
2019-03-03T14:50:40.338Z,12.00
2019-03-03T14:53:12.394Z,12.00
2019-03-03T14:55:40.807Z,12.00
2019-03-03T14:58:09.266Z,12.00
2019-03-03T15:00:37.758Z,11.90
2019-03-03T15:03:07.831Z,11.90
2019-03-03T15:05:36.364Z,11.90
2019-03-03T15:08:05.139Z,12.00
2019-03-03T15:10:33.550Z,11.90
2019-03-03T15:13:02.171Z,11.90
2019-03-03T15:15:35.593Z,11.90
2019-03-03T15:18:03.998Z,11.80
2019-03-03T15:20:32.787Z,11.80
2019-03-03T15:23:01.692Z,11.90
2019-03-03T15:25:33.094Z,11.90
2019-03-03T15:28:01.722Z,11.90
2019-03-03T15:30:30.483Z,12.00
2019-03-03T15:32:58.916Z,12.10
2019-03-03T15:35:27.413Z,12.10
2019-03-03T15:37:55.926Z,12.10
2019-03-03T15:40:26.189Z,12.00
2019-03-03T15:42:54.902Z,12.00
2019-03-03T15:45:25.216Z,11.90
2019-03-03T15:47:54.040Z,11.90
2019-03-03T15:50:23.278Z,11.90
2019-03-03T15:52:52.133Z,11.80
2019-03-03T15:55:30.570Z,11.70
2019-03-03T15:57:59.019Z,11.70
2019-03-03T16:00:35.939Z,11.60
2019-03-03T16:03:05.525Z,11.60
2019-03-03T16:05:34.111Z,11.60
2019-03-03T16:08:02.536Z,11.60
2019-03-03T16:10:33.385Z,11.70
2019-03-03T16:13:03.789Z,11.70
2019-03-03T16:15:32.021Z,11.70
2019-03-03T16:18:00.471Z,11.70
2019-03-03T16:20:29.288Z,11.70
2019-03-03T16:22:57.727Z,11.70
2019-03-03T16:25:35.138Z,11.70
2019-03-03T16:28:03.547Z,11.70
2019-03-03T16:30:31.983Z,11.70
2019-03-03T16:33:00.428Z,11.60
2019-03-03T16:35:28.858Z,11.50
2019-03-03T16:37:57.694Z,11.50
2019-03-03T16:40:26.482Z,11.50
2019-03-03T16:42:54.942Z,11.40
2019-03-03T16:45:23.683Z,11.40
2019-03-03T16:47:52.506Z,11.30
2019-03-03T16:50:22.294Z,11.30
2019-03-03T16:52:50.696Z,11.40
2019-03-03T16:55:20.659Z,11.30
2019-03-03T16:57:49.116Z,11.30
2019-03-03T17:00:22.464Z,11.30
2019-03-03T17:02:51.553Z,11.30
2019-03-03T17:05:25.074Z,11.20
2019-03-03T17:07:55.135Z,11.20
2019-03-03T17:10:27.155Z,11.20
2019-03-03T17:12:55.578Z,11.20
2019-03-03T17:15:26.466Z,11.20
2019-03-03T17:17:54.922Z,11.20
2019-03-03T17:20:23.332Z,11.10
2019-03-03T17:22:51.886Z,11.10
2019-03-03T17:25:29.189Z,11.20
2019-03-03T17:27:57.922Z,11.20
2019-03-03T17:30:28.912Z,11.20
2019-03-03T17:32:57.306Z,11.10
2019-03-03T17:35:25.759Z,11.10
2019-03-03T17:37:56.399Z,11.10
2019-03-03T17:40:25.809Z,11.10
2019-03-03T17:42:54.562Z,11.10
2019-03-03T17:45:23.818Z,11.00
2019-03-03T17:47:52.508Z,10.90
2019-03-03T17:50:23.727Z,10.90
2019-03-03T17:52:52.364Z,10.80
2019-03-03T17:55:20.995Z,10.70
2019-03-03T17:57:50.670Z,10.60
2019-03-03T18:00:25.383Z,10.50
2019-03-03T18:02:54.325Z,10.50
2019-03-03T18:05:23.147Z,10.40
2019-03-03T18:07:51.624Z,10.30
2019-03-03T18:10:20.160Z,10.20
2019-03-03T18:12:48.627Z,10.20
2019-03-03T18:15:17.893Z,10.10
2019-03-03T18:17:46.904Z,10.10
2019-03-03T18:20:18.387Z,10.10
2019-03-03T18:22:47.355Z,10.00
2019-03-03T18:25:20.703Z,9.90
2019-03-03T18:27:49.612Z,9.90
2019-03-03T18:30:30.219Z,9.90
2019-03-03T18:32:58.635Z,9.80
2019-03-03T18:35:27.089Z,9.80
2019-03-03T18:37:55.617Z,9.80
2019-03-03T18:40:25.468Z,9.70
2019-03-03T18:42:53.907Z,9.70
2019-03-03T18:45:23.476Z,9.70
2019-03-03T18:47:51.879Z,9.60
2019-03-03T18:50:28.078Z,9.60
2019-03-03T18:52:56.590Z,9.70
2019-03-03T18:55:25.650Z,9.60
2019-03-03T18:57:54.074Z,9.70
2019-03-03T19:00:24.635Z,9.60
2019-03-03T19:02:53.756Z,9.60
2019-03-03T19:05:22.506Z,9.60
2019-03-03T19:07:51.363Z,9.50
2019-03-03T19:10:31.386Z,9.50
2019-03-03T19:12:59.886Z,9.50
2019-03-03T19:15:28.313Z,9.50
2019-03-03T19:17:56.807Z,9.60
2019-03-03T19:20:25.279Z,9.60
2019-03-03T19:22:53.683Z,9.60
2019-03-03T19:25:22.188Z,9.60
2019-03-03T19:27:54.206Z,9.60
2019-03-03T19:30:25.807Z,9.60
2019-03-03T19:32:57.578Z,9.60
2019-03-03T19:35:26.047Z,9.60
2019-03-03T19:37:54.508Z,9.60
2019-03-03T19:40:23.845Z,9.60
2019-03-03T19:42:52.253Z,9.60
2019-03-03T19:45:29.671Z,9.50
2019-03-03T19:47:58.130Z,9.40
2019-03-03T19:50:26.695Z,9.30
2019-03-03T19:52:55.314Z,9.30
2019-03-03T19:55:24.077Z,9.10
2019-03-03T19:57:52.655Z,9.00
2019-03-03T20:00:35.383Z,9.00
2019-03-03T20:03:01.251Z,8.90
2019-03-03T20:05:29.755Z,8.70
2019-03-03T20:07:58.394Z,8.60
2019-03-03T20:10:27.258Z,8.40
2019-03-03T20:12:55.679Z,8.40
2019-03-03T20:15:24.077Z,8.30
2019-03-03T20:17:52.506Z,8.30
2019-03-03T20:20:22.071Z,8.40
2019-03-03T20:22:50.600Z,8.30
2019-03-03T20:25:19.335Z,8.30
2019-03-03T20:27:47.865Z,8.20
2019-03-03T20:30:21.352Z,8.10
2019-03-03T20:32:50.080Z,8.00
2019-03-03T20:35:18.549Z,7.90
2019-03-03T20:37:47.954Z,7.90
2019-03-03T20:40:18.230Z,8.00
2019-03-03T20:42:46.641Z,8.10
2019-03-03T20:45:27.498Z,8.10
2019-03-03T20:47:55.907Z,8.20
2019-03-03T20:50:24.458Z,8.30
2019-03-03T20:52:52.950Z,8.40
2019-03-03T20:55:28.777Z,8.50
2019-03-03T20:57:57.177Z,8.50
2019-03-03T21:00:37.231Z,8.60
2019-03-03T21:03:05.644Z,8.70
2019-03-03T21:05:34.074Z,8.70
2019-03-03T21:08:02.589Z,8.70
2019-03-03T21:10:34.829Z,8.70
2019-03-03T21:13:03.607Z,8.80
2019-03-03T21:15:35.899Z,8.70
2019-03-03T21:18:04.670Z,8.80
2019-03-03T21:20:33.090Z,8.80
2019-03-03T21:23:01.552Z,8.80
2019-03-03T21:25:30.009Z,8.90
2019-03-03T21:27:58.420Z,8.90
2019-03-03T21:30:27.798Z,8.90
2019-03-03T21:32:56.213Z,9.00
2019-03-03T21:35:24.809Z,9.10
2019-03-03T21:37:53.265Z,9.10
2019-03-03T21:40:23.184Z,9.10
2019-03-03T21:42:51.818Z,9.10
2019-03-03T21:45:30.879Z,9.10
2019-03-03T21:47:59.361Z,9.10
2019-03-03T21:50:29.583Z,9.10
2019-03-03T21:52:57.996Z,9.10
2019-03-03T21:55:26.606Z,9.10
2019-03-03T21:57:55.074Z,9.10
2019-03-03T22:00:32.350Z,9.10
2019-03-03T22:03:00.777Z,9.20
2019-03-03T22:05:29.210Z,9.30
2019-03-03T22:08:00.747Z,9.30
2019-03-03T22:10:29.590Z,9.40
2019-03-03T22:13:01.079Z,9.30
2019-03-03T22:15:29.538Z,9.30
2019-03-03T22:17:58.455Z,9.20
2019-03-03T22:20:26.927Z,9.20
2019-03-03T22:22:56.690Z,9.10
2019-03-03T22:25:27.562Z,9.00
2019-03-03T22:27:55.963Z,8.90
2019-03-03T22:30:25.047Z,8.90
2019-03-03T22:32:53.465Z,8.80
2019-03-03T22:35:21.894Z,8.80
2019-03-03T22:37:50.786Z,8.80
2019-03-03T22:40:21.197Z,8.80
2019-03-03T22:42:49.694Z,8.70
2019-03-03T22:45:18.674Z,8.70
2019-03-03T22:47:47.417Z,8.60
2019-03-03T22:50:18.136Z,8.60
2019-03-03T22:52:46.574Z,8.50
2019-03-03T22:55:16.711Z,8.50
2019-03-03T22:57:45.155Z,8.40
2019-03-03T23:00:44.827Z,8.40
2019-03-03T23:03:35.635Z,8.40
2019-03-03T23:06:12.891Z,8.40
2019-03-03T23:08:44.391Z,8.40
2019-03-03T23:11:40.172Z,8.50
2019-03-03T23:14:19.720Z,8.50
2019-03-03T23:17:10.626Z,8.60
2019-03-03T23:19:54.128Z,8.70
2019-03-03T23:22:31.254Z,8.80
2019-03-03T23:25:02.731Z,8.80
2019-03-03T23:27:31.175Z,8.90
2019-03-03T23:29:59.703Z,8.90
2019-03-03T23:32:28.117Z,8.90
2019-03-03T23:34:56.518Z,8.90
2019-03-03T23:37:24.988Z,8.80
2019-03-03T23:39:54.436Z,8.70
2019-03-03T23:42:22.878Z,8.60
2019-03-03T23:44:51.277Z,8.60
2019-03-03T23:47:19.717Z,8.80
2019-03-03T23:49:48.127Z,8.90
2019-03-03T23:52:16.573Z,9.00
2019-03-03T23:54:44.963Z,9.10
2019-03-03T23:57:13.666Z,9.10
2019-03-03T23:59:42.090Z,9.10
